createdAt,value
2018-12-25T00:01:56.653Z,3.40
2018-12-25T00:04:37.438Z,3.40
2018-12-25T00:07:17.958Z,2.80
2018-12-25T00:09:58.931Z,3.40
2018-12-25T00:12:39.269Z,3.50
2018-12-25T00:15:20.262Z,3.50
2018-12-25T00:18:01.078Z,3.50
2018-12-25T00:20:41.851Z,3.50
2018-12-25T00:23:22.384Z,3.50
2018-12-25T00:26:03.313Z,3.60
2018-12-25T00:28:43.878Z,3.60
2018-12-25T00:31:24.438Z,3.60
2018-12-25T00:34:05.317Z,3.70
2018-12-25T00:36:46.177Z,3.70
2018-12-25T00:39:27.049Z,3.70
2018-12-25T00:42:07.953Z,3.70
2018-12-25T00:44:48.779Z,3.70
2018-12-25T00:47:29.534Z,3.70
2018-12-25T00:50:10.440Z,3.70
2018-12-25T00:52:51.305Z,3.70
2018-12-25T00:55:32.167Z,3.70
2018-12-25T00:58:12.946Z,3.80
2018-12-25T01:00:53.783Z,3.80
2018-12-25T01:03:34.440Z,3.80
2018-12-25T01:06:15.090Z,3.80
2018-12-25T01:08:56.161Z,3.40
2018-12-25T01:11:36.971Z,3.70
2018-12-25T01:14:17.954Z,3.80
2018-12-25T01:16:58.742Z,3.90
2018-12-25T01:19:39.533Z,3.90
2018-12-25T01:22:20.512Z,3.90
2018-12-25T01:25:01.536Z,3.80
2018-12-25T01:27:42.291Z,3.80
2018-12-25T01:30:23.271Z,3.90
2018-12-25T01:33:03.507Z,3.90
2018-12-25T01:35:44.070Z,3.90
2018-12-25T01:38:24.842Z,3.90
2018-12-25T01:41:05.499Z,4.00
2018-12-25T01:43:46.518Z,4.00
2018-12-25T01:46:27.406Z,4.00
2018-12-25T01:49:08.434Z,3.90
2018-12-25T01:51:49.263Z,3.80
2018-12-25T01:54:29.682Z,3.80
2018-12-25T01:57:10.559Z,3.80
2018-12-25T01:59:51.261Z,3.80
2018-12-25T02:02:31.700Z,3.70
2018-12-25T02:05:12.431Z,3.70
2018-12-25T02:07:53.234Z,3.70
2018-12-25T02:10:34.029Z,3.80
2018-12-25T02:13:14.893Z,3.70
2018-12-25T02:15:55.330Z,3.30
2018-12-25T02:18:36.378Z,3.80
2018-12-25T02:21:17.275Z,3.90
2018-12-25T02:23:57.874Z,3.90
2018-12-25T02:26:38.911Z,3.90
2018-12-25T02:29:19.717Z,3.90
2018-12-25T02:32:00.545Z,3.90
2018-12-25T02:34:41.450Z,4.00
2018-12-25T02:37:22.363Z,4.00
2018-12-25T02:40:03.227Z,3.40
2018-12-25T02:42:43.768Z,4.10
2018-12-25T02:45:24.625Z,4.10
2018-12-25T02:48:05.578Z,4.00
2018-12-25T02:50:45.992Z,3.90
2018-12-25T02:53:27.019Z,4.10
2018-12-25T02:56:07.865Z,4.10
2018-12-25T02:58:48.512Z,4.10
2018-12-25T03:01:29.048Z,4.10
2018-12-25T03:04:10.018Z,4.20
2018-12-25T03:06:50.623Z,4.20
2018-12-25T03:09:31.233Z,4.20
2018-12-25T03:12:12.195Z,4.20
2018-12-25T03:14:52.610Z,4.20
2018-12-25T03:17:33.203Z,4.20
2018-12-25T03:20:14.023Z,4.20
2018-12-25T03:22:54.740Z,4.20
2018-12-25T03:25:35.674Z,4.20
2018-12-25T03:28:16.617Z,4.20
2018-12-25T03:30:57.469Z,4.20
2018-12-25T03:33:38.335Z,4.20
2018-12-25T03:36:19.158Z,4.20
2018-12-25T03:38:59.998Z,4.10
2018-12-25T03:41:40.185Z,4.20
2018-12-25T03:44:21.080Z,4.20
2018-12-25T03:47:01.759Z,4.20
2018-12-25T03:49:42.732Z,4.30
2018-12-25T03:52:23.037Z,4.30
2018-12-25T03:55:03.509Z,4.30
2018-12-25T03:57:44.060Z,4.30
2018-12-25T04:00:24.606Z,4.30
2018-12-25T04:03:05.553Z,4.30
2018-12-25T04:05:46.438Z,4.30
2018-12-25T04:08:26.883Z,4.30
2018-12-25T04:11:07.684Z,4.30
2018-12-25T04:13:48.487Z,4.40
2018-12-25T04:16:29.338Z,4.40
2018-12-25T04:19:09.907Z,4.40
2018-12-25T04:21:50.413Z,4.40
2018-12-25T04:24:31.351Z,4.40
2018-12-25T04:27:11.994Z,4.40
2018-12-25T04:29:52.906Z,4.40
2018-12-25T04:32:33.892Z,4.40
2018-12-25T04:35:14.769Z,4.40
2018-12-25T04:37:55.463Z,4.40
2018-12-25T04:40:35.926Z,4.40
2018-12-25T04:43:16.610Z,4.40
2018-12-25T04:45:57.628Z,4.40
2018-12-25T04:48:38.458Z,4.40
2018-12-25T04:51:19.452Z,4.40
2018-12-25T04:54:00.391Z,4.40
2018-12-25T04:56:41.584Z,4.40
2018-12-25T04:59:22.643Z,4.40
2018-12-25T05:02:03.517Z,4.50
2018-12-25T05:04:44.198Z,4.40
2018-12-25T05:07:24.971Z,4.40
2018-12-25T05:10:05.711Z,4.40
2018-12-25T05:12:46.259Z,4.40
2018-12-25T05:15:26.994Z,4.40
2018-12-25T05:18:07.488Z,4.40
2018-12-25T05:20:48.243Z,4.40
2018-12-25T05:23:28.722Z,4.40
2018-12-25T05:26:09.153Z,4.40
2018-12-25T05:28:50.132Z,4.40
2018-12-25T05:31:30.587Z,4.30
2018-12-25T05:34:11.166Z,4.30
2018-12-25T05:36:51.703Z,4.30
2018-12-25T05:39:32.532Z,4.30
2018-12-25T05:42:13.287Z,3.50
2018-12-25T05:44:54.117Z,4.30
2018-12-25T05:47:34.846Z,4.30
2018-12-25T05:50:15.728Z,4.30
2018-12-25T05:52:56.766Z,4.30
2018-12-25T05:55:37.514Z,4.30
2018-12-25T05:58:18.071Z,4.30
2018-12-25T06:00:58.987Z,4.30
2018-12-25T06:03:39.770Z,4.30
2018-12-25T06:06:20.867Z,4.30
2018-12-25T06:09:01.715Z,4.40
2018-12-25T06:11:42.594Z,4.30
2018-12-25T06:14:23.311Z,4.30
2018-12-25T06:17:04.027Z,4.40
2018-12-25T06:19:44.818Z,4.40
2018-12-25T06:22:25.324Z,4.30
2018-12-25T06:25:06.267Z,4.30
2018-12-25T06:27:46.922Z,4.30
2018-12-25T06:30:27.859Z,3.90
2018-12-25T06:33:08.093Z,4.30
2018-12-25T06:35:49.031Z,4.30
2018-12-25T06:38:29.890Z,4.30
2018-12-25T06:41:10.615Z,4.20
2018-12-25T06:43:51.427Z,4.20
2018-12-25T06:46:32.002Z,4.20
2018-12-25T06:49:12.575Z,4.30
2018-12-25T06:51:52.993Z,4.30
2018-12-25T06:54:33.634Z,4.30
2018-12-25T06:57:14.496Z,4.30
2018-12-25T06:59:55.564Z,4.30
2018-12-25T07:02:36.286Z,4.30
2018-12-25T07:05:16.678Z,4.30
2018-12-25T07:07:57.370Z,4.30
2018-12-25T07:10:38.459Z,4.30
2018-12-25T07:13:18.935Z,4.20
2018-12-25T07:15:59.675Z,4.30
2018-12-25T07:18:40.419Z,4.30
2018-12-25T07:21:20.955Z,4.30
2018-12-25T07:24:01.929Z,4.30
2018-12-25T07:26:43.067Z,4.20
2018-12-25T07:29:24.048Z,4.20
2018-12-25T07:32:05.031Z,4.20
2018-12-25T07:34:45.946Z,4.20
2018-12-25T07:37:26.255Z,4.20
2018-12-25T07:40:07.089Z,4.20
2018-12-25T07:42:47.933Z,4.20
2018-12-25T07:45:28.363Z,4.20
2018-12-25T07:48:08.746Z,4.10
2018-12-25T07:50:49.210Z,4.10
2018-12-25T07:53:30.100Z,4.10
2018-12-25T07:56:10.921Z,4.20
2018-12-25T07:58:51.366Z,4.20
2018-12-25T08:01:32.017Z,4.10
2018-12-25T08:04:12.609Z,4.20
2018-12-25T08:06:53.320Z,4.20
2018-12-25T08:09:34.279Z,4.20
2018-12-25T08:12:14.942Z,4.30
2018-12-25T08:14:55.983Z,4.30
2018-12-25T08:17:36.567Z,4.30
2018-12-25T08:20:17.488Z,4.40
2018-12-25T08:23:02.562Z,4.30
2018-12-25T08:25:40.488Z,4.30
2018-12-25T08:28:21.286Z,4.30
2018-12-25T08:31:02.182Z,4.40
2018-12-25T08:33:42.690Z,4.40
2018-12-25T08:36:23.470Z,4.40
2018-12-25T08:39:04.783Z,3.60
2018-12-25T08:41:45.077Z,4.40
2018-12-25T08:44:25.822Z,4.40
2018-12-25T08:49:50.212Z,4.50
2018-12-25T08:52:31.569Z,4.50
2018-12-25T08:55:12.275Z,4.50
2018-12-25T08:57:54.830Z,4.50
2018-12-25T09:00:35.403Z,4.50
2018-12-25T09:03:15.994Z,4.50
2018-12-25T09:05:56.527Z,4.00
2018-12-25T09:08:37.500Z,4.60
2018-12-25T09:11:17.894Z,4.60
2018-12-25T09:13:58.856Z,4.70
2018-12-25T09:16:39.574Z,4.70
2018-12-25T09:19:20.491Z,4.70
2018-12-25T09:22:01.416Z,4.70
2018-12-25T09:24:42.052Z,4.80
2018-12-25T09:27:23.022Z,4.80
2018-12-25T09:30:03.806Z,4.70
2018-12-25T09:32:45.008Z,4.80
2018-12-25T09:35:25.670Z,4.80
2018-12-25T09:38:06.769Z,4.90
2018-12-25T09:40:47.782Z,4.90
2018-12-25T09:43:28.129Z,4.90
2018-12-25T09:46:09.172Z,4.90
2018-12-25T09:48:49.755Z,4.90
2018-12-25T09:51:30.198Z,4.20
2018-12-25T09:54:10.793Z,4.90
2018-12-25T09:56:51.506Z,4.90
2018-12-25T09:59:32.058Z,5.00
2018-12-25T10:02:12.725Z,5.00
2018-12-25T10:04:53.679Z,5.10
2018-12-25T10:07:34.318Z,5.10
2018-12-25T10:10:15.054Z,5.10
2018-12-25T10:12:55.750Z,5.10
2018-12-25T10:15:36.587Z,5.10
2018-12-25T10:18:17.643Z,5.10
2018-12-25T10:20:58.309Z,5.10
2018-12-25T10:23:39.107Z,5.00
2018-12-25T10:26:19.698Z,5.10
2018-12-25T10:29:00.144Z,5.10
2018-12-25T10:31:41.270Z,5.20
2018-12-25T10:34:22.163Z,5.20
2018-12-25T10:37:02.934Z,5.40
2018-12-25T10:39:43.505Z,5.50
2018-12-25T10:42:24.220Z,5.60
2018-12-25T10:45:04.682Z,4.80
2018-12-25T10:47:45.787Z,5.50
2018-12-25T10:50:26.818Z,5.60
2018-12-25T10:53:07.406Z,5.60
2018-12-25T10:55:48.379Z,5.60
2018-12-25T10:58:28.872Z,5.50
2018-12-25T11:01:09.783Z,5.60
2018-12-25T11:03:50.195Z,5.60
2018-12-25T11:06:31.104Z,5.70
2018-12-25T11:09:11.677Z,5.70
2018-12-25T11:11:52.538Z,5.70
2018-12-25T11:14:33.463Z,5.70
2018-12-25T11:17:14.046Z,5.80
2018-12-25T11:19:54.957Z,5.90
2018-12-25T11:22:35.594Z,5.90
2018-12-25T11:25:16.145Z,6.00
2018-12-25T11:27:57.134Z,6.10
2018-12-25T11:30:37.494Z,6.10
2018-12-25T11:33:18.462Z,6.20
2018-12-25T11:35:58.906Z,6.10
2018-12-25T11:38:39.507Z,6.10
2018-12-25T11:41:19.898Z,6.10
2018-12-25T11:44:00.888Z,6.00
2018-12-25T11:46:41.582Z,6.00
2018-12-25T11:49:22.312Z,6.00
2018-12-25T11:52:03.193Z,6.00
2018-12-25T11:54:43.643Z,6.00
2018-12-25T11:57:24.298Z,6.00
2018-12-25T12:00:05.204Z,6.00
2018-12-25T12:02:45.831Z,6.00
2018-12-25T12:05:26.624Z,6.00
2018-12-25T12:08:07.234Z,6.00
2018-12-25T12:10:47.555Z,6.00
2018-12-25T12:13:28.304Z,6.00
2018-12-25T12:16:08.758Z,6.00
2018-12-25T12:18:49.759Z,6.00
2018-12-25T12:21:30.255Z,6.00
2018-12-25T12:24:10.691Z,5.10
2018-12-25T12:26:51.421Z,6.00
2018-12-25T12:29:32.269Z,6.00
2018-12-25T12:32:13.004Z,6.00
2018-12-25T12:34:53.662Z,6.00
2018-12-25T12:37:34.858Z,5.90
2018-12-25T12:40:15.616Z,6.50
2018-12-25T12:42:55.999Z,5.90
2018-12-25T12:45:36.941Z,5.90
2018-12-25T12:48:17.836Z,5.90
2018-12-25T12:50:58.806Z,5.50
2018-12-25T12:53:39.738Z,6.00
2018-12-25T12:56:20.395Z,6.00
2018-12-25T12:59:01.195Z,6.00
2018-12-25T13:01:41.754Z,6.00
2018-12-25T13:04:22.639Z,6.00
2018-12-25T13:07:03.203Z,6.00
2018-12-25T13:09:43.524Z,6.00
2018-12-25T13:12:24.426Z,6.00
2018-12-25T13:15:05.090Z,6.00
2018-12-25T13:20:25.302Z,6.00
2018-12-25T13:23:05.875Z,6.00
2018-12-25T13:25:46.552Z,6.00
2018-12-25T13:28:27.430Z,6.00
2018-12-25T13:31:08.034Z,6.00
2018-12-25T13:33:48.746Z,6.10
2018-12-25T13:36:29.672Z,6.00
2018-12-25T13:39:10.530Z,6.00
2018-12-25T13:41:51.222Z,5.90
2018-12-25T13:44:32.102Z,6.00
2018-12-25T13:47:12.876Z,5.90
2018-12-25T13:49:53.587Z,5.90
2018-12-25T13:52:34.389Z,5.90
2018-12-25T13:55:15.876Z,5.90
2018-12-25T13:57:56.619Z,5.90
2018-12-25T14:00:37.442Z,5.90
2018-12-25T14:03:18.084Z,5.90
2018-12-25T14:05:58.961Z,5.90
2018-12-25T14:08:39.578Z,5.90
2018-12-25T14:11:20.127Z,5.90
2018-12-25T14:14:00.579Z,5.80
2018-12-25T14:16:41.206Z,5.80
2018-12-25T14:19:22.275Z,5.80
2018-12-25T14:22:02.766Z,5.80
2018-12-25T14:24:43.596Z,5.80
2018-12-25T14:27:24.318Z,5.80
2018-12-25T14:30:05.250Z,5.80
2018-12-25T14:32:46.031Z,5.90
2018-12-25T14:35:26.942Z,5.80
2018-12-25T14:38:07.608Z,5.80
2018-12-25T14:40:48.590Z,5.80
2018-12-25T14:43:29.279Z,5.80
2018-12-25T14:46:09.835Z,5.80
2018-12-25T14:48:50.603Z,5.80
2018-12-25T14:51:31.210Z,5.80
2018-12-25T14:54:12.086Z,5.80
2018-12-25T14:56:52.527Z,5.10
2018-12-25T14:59:33.015Z,5.70
2018-12-25T15:02:13.532Z,5.70
2018-12-25T15:04:54.004Z,5.70
2018-12-25T15:07:34.910Z,5.70
2018-12-25T15:10:15.687Z,5.70
2018-12-25T15:12:56.617Z,5.70
2018-12-25T15:15:37.066Z,5.70
2018-12-25T15:18:18.009Z,5.70
2018-12-25T15:20:58.649Z,5.70
2018-12-25T15:23:39.295Z,5.70
2018-12-25T15:26:19.702Z,5.30
2018-12-25T15:29:00.170Z,5.70
2018-12-25T15:31:40.884Z,5.70
2018-12-25T15:34:21.573Z,5.70
2018-12-25T15:37:02.813Z,5.70
2018-12-25T15:39:43.216Z,5.70
2018-12-25T15:42:24.048Z,5.70
2018-12-25T15:45:04.488Z,5.70
2018-12-25T15:47:45.054Z,5.70
2018-12-25T15:50:25.598Z,5.70
2018-12-25T15:53:06.514Z,5.70
2018-12-25T15:55:47.150Z,5.80
2018-12-25T15:58:27.739Z,5.80
2018-12-25T16:01:08.551Z,5.80
2018-12-25T16:03:49.290Z,5.80
2018-12-25T16:06:30.010Z,5.80
2018-12-25T16:09:10.970Z,5.20
2018-12-25T16:11:51.635Z,5.80
2018-12-25T16:14:32.338Z,5.80
2018-12-25T16:17:12.805Z,5.80
2018-12-25T16:19:53.444Z,5.80
2018-12-25T16:22:34.327Z,5.70
2018-12-25T16:25:15.192Z,5.80
2018-12-25T16:27:55.835Z,5.80
2018-12-25T16:30:36.514Z,5.70
2018-12-25T16:33:17.186Z,5.80
2018-12-25T16:35:57.450Z,5.70
2018-12-25T16:38:38.463Z,5.90
2018-12-25T16:41:19.098Z,5.70
2018-12-25T16:43:59.694Z,6.60
2018-12-25T16:46:40.790Z,5.80
2018-12-25T16:49:21.602Z,5.70
2018-12-25T16:52:02.583Z,5.10
2018-12-25T16:54:43.386Z,5.70
2018-12-25T16:57:24.425Z,5.70
2018-12-25T17:00:05.098Z,5.70
2018-12-25T17:02:45.965Z,5.70
2018-12-25T17:05:26.456Z,5.80
2018-12-25T17:08:07.057Z,5.70
2018-12-25T17:10:47.808Z,5.70
2018-12-25T17:13:28.558Z,5.70
2018-12-25T17:16:09.478Z,5.70
2018-12-25T17:18:49.923Z,5.70
2018-12-25T17:21:30.790Z,5.90
2018-12-25T17:24:11.847Z,5.70
2018-12-25T17:26:52.469Z,5.70
2018-12-25T17:29:33.415Z,5.70
2018-12-25T17:32:14.226Z,5.70
2018-12-25T17:34:54.840Z,5.80
2018-12-25T17:37:35.657Z,5.70
2018-12-25T17:40:16.236Z,5.70
2018-12-25T17:42:56.709Z,5.70
2018-12-25T17:45:37.632Z,5.70
2018-12-25T17:48:18.701Z,5.70
2018-12-25T17:50:59.606Z,5.70
2018-12-25T17:53:40.340Z,5.70
2018-12-25T17:56:21.086Z,5.70
2018-12-25T17:59:01.970Z,5.70
2018-12-25T18:01:42.442Z,5.70
2018-12-25T18:04:23.051Z,5.80
2018-12-25T18:07:03.613Z,5.70
2018-12-25T18:09:44.466Z,5.70
2018-12-25T18:12:25.302Z,5.70
2018-12-25T18:15:06.364Z,5.80
2018-12-25T18:17:47.296Z,5.80
2018-12-25T18:20:27.938Z,5.80
2018-12-25T18:23:08.722Z,5.80
2018-12-25T18:25:49.473Z,5.80
2018-12-25T18:28:29.987Z,5.80
2018-12-25T18:31:10.680Z,5.80
2018-12-25T18:33:51.285Z,5.80
2018-12-25T18:36:32.005Z,5.80
2018-12-25T18:39:12.903Z,5.80
2018-12-25T18:41:53.540Z,5.80
2018-12-25T18:44:34.407Z,5.80
2018-12-25T18:47:02.845Z,5.80
2018-12-25T18:49:50.644Z,5.80
2018-12-25T18:52:38.421Z,5.70
2018-12-25T18:55:19.667Z,5.70
2018-12-25T18:58:00.541Z,5.80
2018-12-25T19:00:41.241Z,5.70
2018-12-25T19:03:22.077Z,5.70
2018-12-25T19:06:03.287Z,5.70
2018-12-25T19:08:44.043Z,5.70
2018-12-25T19:11:24.855Z,5.70
2018-12-25T19:14:05.600Z,5.70
2018-12-25T19:16:46.275Z,5.70
2018-12-25T19:19:27.066Z,5.70
2018-12-25T19:22:07.990Z,5.70
2018-12-25T19:24:48.953Z,5.70
2018-12-25T19:27:29.515Z,5.70
2018-12-25T19:30:10.651Z,5.70
2018-12-25T19:32:51.060Z,5.60
2018-12-25T19:35:31.791Z,5.30
2018-12-25T19:38:12.351Z,5.60
2018-12-25T19:40:53.389Z,5.60
2018-12-25T19:43:34.014Z,5.70
2018-12-25T19:46:15.020Z,5.60
2018-12-25T19:48:56.107Z,5.70
2018-12-25T19:51:36.846Z,5.70
2018-12-25T19:54:17.751Z,5.70
2018-12-25T19:56:58.754Z,7.00
2018-12-25T19:59:39.272Z,5.70
2018-12-25T20:02:19.982Z,5.70
2018-12-25T20:05:01.071Z,5.70
2018-12-25T20:07:41.927Z,5.70
2018-12-25T20:10:23.151Z,5.70
2018-12-25T20:13:04.086Z,5.70
2018-12-25T20:15:44.977Z,5.70
2018-12-25T20:18:25.757Z,5.70
2018-12-25T20:21:06.110Z,5.60
2018-12-25T20:23:46.751Z,5.70
2018-12-25T20:26:27.673Z,5.60
2018-12-25T20:29:08.265Z,5.60
2018-12-25T20:31:48.888Z,5.60
2018-12-25T20:34:29.331Z,5.60
2018-12-25T20:37:09.818Z,5.60
2018-12-25T20:39:50.322Z,5.60
2018-12-25T20:42:30.985Z,5.60
2018-12-25T20:45:12.104Z,5.60
2018-12-25T20:47:53.142Z,5.60
2018-12-25T20:50:33.848Z,5.70
2018-12-25T20:53:14.984Z,5.70
2018-12-25T20:55:55.818Z,5.60
2018-12-25T20:58:36.623Z,5.60
2018-12-25T21:01:17.039Z,5.60
2018-12-25T21:03:57.614Z,5.60
2018-12-25T21:06:38.317Z,5.60
2018-12-25T21:09:18.891Z,5.70
2018-12-25T21:11:59.419Z,5.70
2018-12-25T21:14:40.551Z,5.70
2018-12-25T21:17:21.423Z,5.70
2018-12-25T21:20:02.108Z,5.70
2018-12-25T21:22:43.170Z,5.70
2018-12-25T21:25:23.875Z,5.70
2018-12-25T21:28:04.455Z,5.80
2018-12-25T21:30:45.239Z,5.70
2018-12-25T21:33:25.982Z,5.70
2018-12-25T21:36:06.643Z,5.70
2018-12-25T21:38:47.568Z,4.80
2018-12-25T21:41:28.173Z,5.70
2018-12-25T21:44:08.850Z,5.70
2018-12-25T21:46:49.475Z,5.70
2018-12-25T21:49:30.462Z,5.70
2018-12-25T21:52:11.475Z,5.70
2018-12-25T21:54:52.391Z,5.70
2018-12-25T21:57:32.938Z,5.70
2018-12-25T22:00:13.380Z,5.80
2018-12-25T22:02:54.322Z,5.80
2018-12-25T22:05:34.721Z,5.80
2018-12-25T22:08:15.161Z,5.80
2018-12-25T22:10:55.545Z,5.80
2018-12-25T22:13:36.288Z,5.80
2018-12-25T22:16:17.245Z,5.80
2018-12-25T22:18:58.303Z,5.80
2018-12-25T22:21:38.806Z,5.80
2018-12-25T22:24:19.371Z,5.80
2018-12-25T22:27:00.082Z,5.80
2018-12-25T22:29:41.018Z,5.80
2018-12-25T22:32:22.086Z,5.80
2018-12-25T22:35:03.060Z,5.80
2018-12-25T22:37:43.964Z,5.90
2018-12-25T22:40:24.550Z,5.90
2018-12-25T22:43:05.293Z,5.90
2018-12-25T22:45:45.863Z,5.90
2018-12-25T22:48:27.016Z,5.90
2018-12-25T22:51:07.678Z,5.90
2018-12-25T22:53:48.459Z,5.90
2018-12-25T22:56:29.392Z,5.80
2018-12-25T22:59:10.158Z,5.90
2018-12-25T23:01:50.931Z,5.90
2018-12-25T23:04:31.930Z,5.90
2018-12-25T23:07:12.666Z,5.90
2018-12-25T23:09:53.539Z,5.90
2018-12-25T23:12:34.250Z,5.90
2018-12-25T23:15:14.906Z,5.90
2018-12-25T23:17:55.574Z,5.90
2018-12-25T23:20:36.250Z,5.90
2018-12-25T23:23:17.142Z,5.90
2018-12-25T23:25:57.935Z,5.90
2018-12-25T23:28:38.742Z,5.90
2018-12-25T23:31:19.307Z,5.90
2018-12-25T23:33:59.974Z,5.90
2018-12-25T23:36:40.719Z,5.90
2018-12-25T23:39:21.230Z,5.90
2018-12-25T23:42:01.820Z,5.90
2018-12-25T23:44:42.681Z,5.90
2018-12-25T23:47:23.305Z,5.90
2018-12-25T23:50:03.994Z,5.90
2018-12-25T23:52:44.755Z,5.90
2018-12-25T23:55:25.380Z,5.90
2018-12-25T23:58:06.515Z,5.90
